Time;durP1;ratioP1;P1;durP2;ratioP2;P2;SDS_P1;SDS_P2;PMS_P1;PMS_P2;Temp;Humidity;BMP_temperature;BMP_pressure;BME280_temperature;BME280_humidity;BME280_pressure;Samples;Min_cycle;Max_cycle;Signal;HPM_P1;HPM_P2
2022/06/02 00:02:22;;;;;;;8.88;4.80;;;9.90;99.90;;;;;;4953838;29;20063;-70
2022/06/02 00:05:06;;;;;;;7.47;5.00;;;9.90;99.90;;;;;;4953215;28;20051;-68
2022/06/02 00:07:50;;;;;;;7.40;4.75;;;9.90;99.90;;;;;;4953045;28;20523;-69
2022/06/02 00:10:31;;;;;;;6.20;4.40;;;9.80;99.90;;;;;;4964466;28;20062;-70
2022/06/02 00:13:17;;;;;;;7.82;5.32;;;9.80;99.90;;;;;;4987694;28;20059;-70
2022/06/02 00:15:52;;;;;;;10.02;5.93;;;9.80;99.90;;;;;;4915899;29;20548;-69
2022/06/02 00:18:24;;;;;;;12.20;6.47;;;10.10;99.90;;;;;;4915651;29;20070;-70
2022/06/02 00:20:57;;;;;;;9.40;5.38;;;9.80;99.90;;;;;;4898256;29;20060;-68
2022/06/02 00:23:28;;;;;;;8.05;5.38;;;9.80;99.90;;;;;;4914891;29;20055;-69
2022/06/02 00:26:27;;;;;;;9.90;5.10;;;9.70;99.90;;;;;;4915400;29;20142;-68
2022/06/02 00:29:08;;;;;;;11.23;6.28;;;9.70;99.90;;;;;;4915554;29;20048;-70
2022/06/02 00:31:47;;;;;;;8.75;5.20;;;9.60;99.90;;;;;;4927657;28;20412;-69
2022/06/02 00:34:50;;;;;;;8.73;5.18;;;9.60;99.90;;;;;;4969274;28;20058;-71
2022/06/02 00:37:54;;;;;;;9.25;5.90;;;9.60;99.90;;;;;;4972904;28;20062;-69
2022/06/02 00:40:22;;;;;;;10.20;6.57;;;9.50;99.90;;;;;;4956906;28;20058;-70
2022/06/02 00:43:18;;;;;;;12.07;8.15;;;9.50;99.90;;;;;;4962607;28;20044;-70
2022/06/02 00:45:46;;;;;;;14.38;7.68;;;9.50;99.90;;;;;;4937597;29;20059;-69
2022/06/02 00:48:14;;;;;;;12.93;8.75;;;9.50;99.90;;;;;;4936920;28;20094;-71
2022/06/02 00:50:43;;;;;;;12.52;9.38;;;9.40;99.90;;;;;;4964210;28;20420;-71
2022/06/02 00:53:33;;;;;;;13.25;8.88;;;9.40;99.90;;;;;;5016620;28;20060;-68
2022/06/02 00:59:42;;;;;;;12.52;8.68;;;9.40;99.90;;;;;;4997257;28;20056;-71
2022/06/02 01:02:08;;;;;;;11.88;8.38;;;9.40;99.90;;;;;;5044245;28;20049;-69
2022/06/02 01:04:38;;;;;;;15.23;8.75;;;9.40;99.90;;;;;;5035333;28;20115;-72
2022/06/02 01:07:19;;;;;;;13.07;7.95;;;9.40;99.90;;;;;;5052436;28;20045;-71
2022/06/02 01:09:57;;;;;;;13.48;7.78;;;9.40;99.90;;;;;;5053195;28;20051;-71
2022/06/02 01:12:58;;;;;;;12.10;8.32;;;9.40;99.90;;;;;;5027024;28;20108;-71
2022/06/02 01:15:42;;;;;;;14.98;8.15;;;9.30;99.90;;;;;;5053093;28;20057;-69
2022/06/02 01:18:49;;;;;;;13.40;8.52;;;9.30;99.90;;;;;;5053078;28;20103;-71
2022/06/02 01:21:42;;;;;;;13.98;8.98;;;9.30;99.90;;;;;;5050526;28;20493;-69
2022/06/02 01:24:35;;;;;;;16.33;8.60;;;9.20;99.90;;;;;;5031963;28;20111;-69
2022/06/02 01:27:24;;;;;;;13.27;8.93;;;9.20;99.90;;;;;;5032969;28;20064;-69
2022/06/02 01:30:31;;;;;;;15.05;9.70;;;9.20;99.90;;;;;;5014953;28;20064;-69
2022/06/02 01:33:02;;;;;;;17.33;11.85;;;9.10;99.90;;;;;;4954035;28;20069;-69
2022/06/02 01:36:06;;;;;;;19.13;12.20;;;9.10;99.90;;;;;;4972047;28;20055;-71
2022/06/02 01:39:14;;;;;;;18.20;11.55;;;9.10;99.90;;;;;;4965467;28;20059;-71
2022/06/02 01:42:01;;;;;;;17.23;11.73;;;9.10;99.90;;;;;;4971956;28;20055;-70
2022/06/02 01:44:39;;;;;;;25.20;11.88;;;9.00;99.90;;;;;;4969613;28;20069;-71
2022/06/02 01:47:12;;;;;;;19.70;10.63;;;9.00;99.90;;;;;;4991449;28;20054;-69
2022/06/02 01:49:52;;;;;;;17.33;10.02;;;9.00;99.90;;;;;;4991420;28;20054;-71
2022/06/02 01:52:38;;;;;;;16.77;10.32;;;8.90;99.90;;;;;;4991326;28;20086;-71
2022/06/02 01:55:13;;;;;;;15.57;10.65;;;8.90;99.90;;;;;;4973368;28;20050;-68
2022/06/02 01:57:55;;;;;;;14.65;9.23;;;8.80;99.90;;;;;;4955856;28;20159;-69
2022/06/02 02:00:27;;;;;;;19.80;11.32;;;8.80;99.90;;;;;;4986650;28;20154;-69
2022/06/02 02:03:03;;;;;;;14.65;10.57;;;8.80;99.90;;;;;;4977629;28;20090;-69
2022/06/02 02:05:41;;;;;;;17.55;12.20;;;8.80;99.90;;;;;;4972006;28;20065;-71
2022/06/02 02:08:17;;;;;;;19.42;11.57;;;8.70;99.90;;;;;;5045901;28;20053;-69
2022/06/02 02:11:09;;;;;;;21.60;12.60;;;8.70;99.90;;;;;;5050951;28;20052;-69
2022/06/02 02:13:44;;;;;;;21.65;12.35;;;8.70;99.90;;;;;;4949466;29;20055;-68
2022/06/02 02:16:12;;;;;;;24.10;13.73;;;8.70;99.90;;;;;;4934617;29;20098;-69
2022/06/02 02:18:53;;;;;;;21.17;13.90;;;8.80;99.90;;;;;;4939579;29;20138;-69
2022/06/02 02:21:49;;;;;;;23.80;14.88;;;9.70;99.90;;;;;;4939866;29;20082;-69
2022/06/02 02:24:40;;;;;;;22.52;15.02;;;8.80;99.90;;;;;;4955631;29;20464;-69
2022/06/02 02:27:10;;;;;;;19.58;12.95;;;10.20;99.90;;;;;;4937788;28;20051;-69
2022/06/02 02:30:00;;;;;;;21.20;13.80;;;8.80;99.90;;;;;;4936419;29;20164;-70
2022/06/02 02:33:01;;;;;;;17.88;12.27;;;8.80;99.90;;;;;;4936444;29;20062;-70
2022/06/02 02:35:54;;;;;;;19.13;12.55;;;8.70;99.90;;;;;;4936777;28;20155;-69
2022/06/02 02:38:37;;;;;;;15.95;10.73;;;9.60;99.90;;;;;;4955173;29;20520;-69
2022/06/02 02:41:09;;;;;;;17.60;11.35;;;8.70;99.90;;;;;;4955396;29;20043;-70
2022/06/02 02:44:07;;;;;;;17.65;10.65;;;9.40;99.90;;;;;;4955186;29;20513;-71
2022/06/02 02:46:51;;;;;;;14.07;10.32;;;8.70;99.90;;;;;;4932317;29;20063;-70
2022/06/02 02:49:26;;;;;;;13.25;9.77;;;9.30;99.90;;;;;;4917367;29;20147;-69
2022/06/02 02:52:05;;;;;;;16.30;10.30;;;8.90;99.90;;;;;;5002294;28;20131;-70
2022/06/02 02:54:44;;;;;;;16.30;10.93;;;8.70;99.90;;;;;;5013407;28;20085;-70
2022/06/02 02:57:35;;;;;;;16.15;9.30;;;8.70;99.90;;;;;;4991032;28;20058;-68
2022/06/02 03:00:14;;;;;;;16.40;10.40;;;8.70;99.90;;;;;;4974399;28;20054;-69
2022/06/02 03:03:10;;;;;;;17.20;11.38;;;8.70;99.90;;;;;;4977406;28;20065;-69
2022/06/02 03:06:02;;;;;;;18.48;10.55;;;8.70;99.90;;;;;;4993723;28;20057;-69
2022/06/02 03:08:52;;;;;;;16.98;10.23;;;8.80;99.90;;;;;;4987758;28;20049;-70
2022/06/02 03:11:57;;;;;;;15.25;10.55;;;8.60;99.90;;;;;;4996206;28;20085;-69
2022/06/02 03:14:44;;;;;;;16.70;9.43;;;8.60;99.90;;;;;;4997074;28;20104;-69
2022/06/02 03:17:29;;;;;;;14.90;9.90;;;8.60;99.90;;;;;;4994104;28;20483;-70
2022/06/02 03:20:04;;;;;;;13.90;9.23;;;8.50;99.90;;;;;;4996238;28;20436;-69
2022/06/02 03:22:48;;;;;;;14.27;9.52;;;8.50;99.90;;;;;;5013043;28;20068;-69
2022/06/02 03:25:33;;;;;;;11.73;8.77;;;8.50;99.90;;;;;;5029441;28;20132;-69
2022/06/02 03:28:29;;;;;;;15.32;10.45;;;8.50;99.90;;;;;;5025780;28;20114;-69
2022/06/02 03:31:13;;;;;;;14.35;9.75;;;8.40;99.90;;;;;;5014923;28;20399;-71
2022/06/02 03:33:41;;;;;;;15.50;9.93;;;8.40;99.90;;;;;;5014994;28;20046;-69
2022/06/02 03:36:27;;;;;;;13.75;9.05;;;8.40;99.90;;;;;;5015357;28;20072;-71
2022/06/02 03:38:58;;;;;;;12.73;9.20;;;8.40;99.90;;;;;;5012503;28;20042;-71
2022/06/02 03:41:46;;;;;;;14.05;9.85;;;8.40;99.90;;;;;;5014537;28;20132;-69
2022/06/02 03:44:45;;;;;;;13.27;9.50;;;8.30;99.90;;;;;;5021188;28;20057;-69
2022/06/02 03:47:39;;;;;;;11.20;7.90;;;8.30;99.90;;;;;;5034105;28;20049;-69
2022/06/02 03:50:08;;;;;;;16.25;10.43;;;8.40;99.90;;;;;;5018142;28;20397;-69
2022/06/02 03:52:42;;;;;;;14.52;9.27;;;8.30;99.90;;;;;;5014791;28;20088;-68
2022/06/02 03:55:40;;;;;;;11.80;8.48;;;8.30;99.90;;;;;;5014593;28;20155;-68
2022/06/02 03:58:16;;;;;;;13.87;8.87;;;8.30;99.90;;;;;;5022460;28;20091;-72
2022/06/02 04:00:49;;;;;;;17.90;10.55;;;8.30;99.90;;;;;;5006214;28;20058;-68
2022/06/02 04:03:50;;;;;;;12.82;8.70;;;8.70;99.90;;;;;;5014456;28;20058;-70
2022/06/02 04:06:40;;;;;;;13.43;9.23;;;8.30;99.90;;;;;;4973248;28;20166;-69
2022/06/02 04:09:20;;;;;;;14.32;9.65;;;8.30;99.90;;;;;;4957148;28;20138;-69
2022/06/02 04:15:08;;;;;;;14.40;8.77;;;8.30;99.90;;;;;;4973223;28;20057;-69
2022/06/02 04:17:51;;;;;;;13.65;8.60;;;8.30;99.90;;;;;;4973232;28;20109;-69
2022/06/02 04:20:34;;;;;;;15.25;8.73;;;8.30;99.90;;;;;;4972202;28;20414;-71
2022/06/02 04:23:11;;;;;;;12.70;8.60;;;8.30;99.90;;;;;;4953829;29;20565;-71
2022/06/02 04:25:54;;;;;;;14.48;9.00;;;8.40;99.90;;;;;;4953681;29;20055;-69
2022/06/02 04:28:28;;;;;;;12.68;7.85;;;8.40;99.90;;;;;;4953784;29;20416;-69
2022/06/02 04:31:17;;;;;;;13.68;9.38;;;8.90;99.90;;;;;;4938642;28;20062;-69
2022/06/02 04:33:53;;;;;;;12.35;9.00;;;8.40;99.90;;;;;;4971083;28;20134;-70
2022/06/02 04:36:30;;;;;;;13.43;9.57;;;8.40;99.90;;;;;;4969377;28;20162;-70
2022/06/02 04:39:01;;;;;;;14.95;9.13;;;8.50;99.90;;;;;;4972957;28;20134;-70
2022/06/02 04:41:48;;;;;;;16.33;11.00;;;8.50;99.90;;;;;;4971979;28;20077;-69
2022/06/02 04:44:29;;;;;;;16.25;10.55;;;8.50;99.90;;;;;;5029057;28;20092;-69
2022/06/02 04:47:14;;;;;;;19.30;10.30;;;8.80;99.90;;;;;;5033712;28;20104;-70
2022/06/02 04:49:42;;;;;;;17.23;10.30;;;8.60;99.90;;;;;;5032481;28;20045;-71
2022/06/02 04:52:31;;;;;;;19.02;9.60;;;9.20;99.90;;;;;;5011720;28;20045;-71
2022/06/02 04:55:22;;;;;;;14.02;9.25;;;10.20;99.90;;;;;;5007219;28;20144;-70
2022/06/02 04:58:09;;;;;;;16.90;10.13;;;8.80;99.90;;;;;;5033618;28;20437;-70
2022/06/02 05:00:58;;;;;;;13.82;9.10;;;8.90;99.90;;;;;;5007075;28;20153;-68
2022/06/02 05:04:01;;;;;;;14.18;9.07;;;9.00;99.90;;;;;;5003740;28;20459;-68
2022/06/02 05:06:27;;;;;;;13.35;9.25;;;9.10;99.90;;;;;;5015941;28;20057;-71
2022/06/02 05:09:26;;;;;;;15.85;9.40;;;9.10;99.90;;;;;;5032692;28;20075;-69
2022/06/02 05:12:03;;;;;;;12.55;9.38;;;9.20;99.90;;;;;;5013745;28;20089;-69
2022/06/02 05:14:53;;;;;;;13.73;9.00;;;9.20;99.90;;;;;;5026678;28;20073;-70
2022/06/02 05:17:18;;;;;;;13.30;8.90;;;9.30;99.90;;;;;;5033226;28;20050;-69
2022/06/02 05:20:15;;;;;;;12.27;8.63;;;9.40;99.90;;;;;;5033125;28;20049;-71
2022/06/02 05:22:40;;;;;;;14.68;9.32;;;9.40;99.90;;;;;;5015475;28;20430;-69
2022/06/02 05:25:53;;;;;;;13.83;8.03;;;9.80;99.90;;;;;;5032389;28;20045;-69
2022/06/02 05:28:43;;;;;;;17.73;9.13;;;9.50;99.90;;;;;;4991465;28;20097;-69
2022/06/02 05:31:40;;;;;;;12.73;8.52;;;9.60;99.90;;;;;;4975199;28;20046;-71
2022/06/02 05:34:44;;;;;;;12.80;8.57;;;9.70;99.90;;;;;;4914762;29;20462;-69
2022/06/02 05:37:40;;;;;;;13.98;7.93;;;9.70;99.90;;;;;;4858617;29;20436;-71
2022/06/02 05:40:26;;;;;;;11.18;8.00;;;9.80;99.90;;;;;;4857996;29;20388;-69
2022/06/02 05:43:10;;;;;;;10.15;6.93;;;9.90;99.90;;;;;;4858428;29;20058;-69
2022/06/02 05:45:49;;;;;;;11.57;7.57;;;9.90;99.90;;;;;;4857420;29;20147;-69
2022/06/02 05:48:24;;;;;;;11.30;8.07;;;10.00;99.90;;;;;;4858539;29;20535;-69
2022/06/02 05:51:01;;;;;;;11.77;7.68;;;10.10;99.90;;;;;;4858400;29;20058;-69
2022/06/02 05:53:26;;;;;;;;;;;10.10;99.90;;;;;;4861935;29;20061;-69
2022/06/02 05:56:20;;;;;;;10.27;8.07;;;10.20;99.90;;;;;;4844788;29;19924;-69
2022/06/02 05:59:13;;;;;;;11.88;6.68;;;10.20;99.90;;;;;;4862113;29;20136;-70
2022/06/02 06:02:13;;;;;;;12.70;6.40;;;10.40;99.90;;;;;;4862006;29;20133;-70
2022/06/02 06:04:56;;;;;;;10.25;7.65;;;10.50;99.90;;;;;;4878195;29;20104;-70
2022/06/02 06:08:01;;;;;;;10.18;7.20;;;10.50;99.90;;;;;;4871723;29;20063;-69
2022/06/02 06:10:47;;;;;;;13.50;7.65;;;10.70;99.90;;;;;;4895316;29;20059;-70
2022/06/02 06:13:30;;;;;;;8.05;6.22;;;10.70;99.90;;;;;;4957498;28;20579;-72
2022/06/02 06:16:03;;;;;;;7.53;4.55;;;10.80;99.90;;;;;;5011837;28;20053;-69
2022/06/02 06:19:00;;;;;;;5.82;4.05;;;10.90;99.90;;;;;;4981812;28;20081;-69
2022/06/02 06:21:47;;;;;;;8.40;5.03;;;11.00;99.90;;;;;;4938851;29;20530;-69
2022/06/02 06:24:43;;;;;;;5.28;3.60;;;11.10;99.90;;;;;;4939937;29;20058;-71
2022/06/02 06:27:25;;;;;;;5.90;3.65;;;11.10;99.90;;;;;;4955832;29;20055;-69
2022/06/02 06:30:21;;;;;;;4.38;3.00;;;11.30;99.90;;;;;;4954281;28;20094;-70
2022/06/02 06:33:10;;;;;;;5.45;4.05;;;11.30;99.90;;;;;;4972546;28;20070;-69
2022/06/02 06:35:57;;;;;;;11.52;3.55;;;11.40;99.90;;;;;;4962053;28;20137;-69
2022/06/02 06:38:26;;;;;;;7.20;3.40;;;11.50;99.90;;;;;;4952416;28;20123;-70
2022/06/02 06:41:10;;;;;;;4.25;2.75;;;11.70;99.90;;;;;;4974898;28;20094;-70
2022/06/02 06:44:09;;;;;;;6.45;3.38;;;11.60;99.90;;;;;;4974893;28;20098;-69
2022/06/02 06:47:04;;;;;;;4.38;2.58;;;11.70;99.90;;;;;;4978926;28;20123;-71
2022/06/02 06:49:51;;;;;;;4.88;2.67;;;11.80;99.90;;;;;;4954405;28;20055;-70
2022/06/02 06:52:40;;;;;;;4.60;2.65;;;11.90;99.90;;;;;;4969444;28;20145;-70
2022/06/02 06:55:41;;;;;;;4.65;2.92;;;11.90;99.90;;;;;;4958716;28;20058;-72
2022/06/02 06:58:18;;;;;;;4.07;2.65;;;12.00;99.90;;;;;;4981450;28;20152;-70
2022/06/02 07:01:06;;;;;;;3.40;2.53;;;12.10;99.90;;;;;;4989871;28;20050;-69
2022/06/02 07:03:47;;;;;;;4.18;2.72;;;12.10;99.90;;;;;;4988009;28;20051;-72
2022/06/02 07:06:52;;;;;;;4.20;2.63;;;12.20;99.90;;;;;;4993848;28;20141;-70
2022/06/02 07:09:20;;;;;;;4.15;2.33;;;12.20;99.90;;;;;;4986363;28;20066;-70
2022/06/02 07:15:33;;;;;;;3.72;2.30;;;12.30;99.90;;;;;;4935713;29;20099;-70
2022/06/02 07:18:20;;;;;;;3.92;2.20;;;12.30;99.90;;;;;;4928445;29;20476;-72
2022/06/02 07:21:39;;;;;;;3.35;2.03;;;12.40;99.90;;;;;;4922274;28;20070;-71
2022/06/02 07:24:34;;;;;;;3.17;1.90;;;12.40;99.90;;;;;;4877678;29;20061;-70
2022/06/02 07:27:24;;;;;;;6.03;2.53;;;12.50;99.90;;;;;;4901398;29;20082;-70
2022/06/02 07:29:58;;;;;;;4.75;2.25;;;12.50;99.90;;;;;;4897687;29;20052;-70
2022/06/02 07:33:06;;;;;;;3.67;1.73;;;12.60;99.90;;;;;;4900421;29;20055;-69
2022/06/02 07:36:09;;;;;;;2.85;1.67;;;12.60;99.90;;;;;;4915011;29;20055;-72
2022/06/02 07:38:45;;;;;;;2.83;1.27;;;12.60;99.90;;;;;;4916296;29;20562;-70
2022/06/02 07:41:16;;;;;;;5.47;1.70;;;12.70;99.90;;;;;;4900894;29;20064;-69
2022/06/02 07:43:53;;;;;;;3.30;1.52;;;12.70;99.90;;;;;;4916309;28;20108;-70
2022/06/02 07:47:06;;;;;;;3.05;1.65;;;12.70;99.90;;;;;;4914310;29;20068;-70
2022/06/02 07:49:41;;;;;;;2.50;1.20;;;12.80;99.90;;;;;;4918664;29;20174;-69
2022/06/02 07:52:33;;;;;;;2.95;1.25;;;12.80;99.90;;;;;;4934986;29;20089;-71
2022/06/02 07:55:18;;;;;;;5.40;1.35;;;12.90;99.90;;;;;;4934847;29;20179;-70
2022/06/02 07:58:06;;;;;;;4.68;1.20;;;13.00;99.90;;;;;;4966828;28;20133;-71
2022/06/02 08:01:03;;;;;;;2.60;1.45;;;12.90;99.90;;;;;;5033300;28;20187;-69
2022/06/02 08:03:38;;;;;;;3.97;1.50;;;12.90;99.90;;;;;;5024035;28;20096;-72
2022/06/02 08:06:24;;;;;;;5.90;1.90;;;13.00;99.90;;;;;;5014442;28;20054;-70
2022/06/02 08:09:12;;;;;;;2.85;1.58;;;13.00;99.90;;;;;;4996412;28;20054;-69
2022/06/02 08:11:42;;;;;;;;;;;13.10;99.90;;;;;;5032556;28;20060;-70
2022/06/02 08:14:24;;;;;;;4.25;1.60;;;13.10;99.90;;;;;;5033980;28;19925;-71
2022/06/02 08:17:06;;;;;;;2.67;1.42;;;13.10;99.90;;;;;;5033925;28;20037;-70
2022/06/02 08:20:14;;;;;;;4.82;1.40;;;13.10;99.90;;;;;;5009706;28;20057;-71
2022/06/02 08:22:55;;;;;;;6.45;1.80;;;13.10;99.90;;;;;;5033669;28;20045;-70
2022/06/02 08:25:26;;;;;;;4.32;1.30;;;13.10;99.90;;;;;;5015742;28;20057;-71
2022/06/02 08:27:56;;;;;;;3.75;1.15;;;13.10;99.90;;;;;;5033795;28;20045;-70
2022/06/02 08:30:50;;;;;;;3.50;1.50;;;13.10;99.90;;;;;;5024679;28;20490;-71
2022/06/02 08:33:34;;;;;;;2.83;1.38;;;13.10;99.90;;;;;;5033500;28;20533;-70
2022/06/02 08:36:29;;;;;;;2.42;1.13;;;13.20;99.90;;;;;;5033775;28;20135;-70
2022/06/02 08:39:32;;;;;;;2.47;1.33;;;13.20;99.90;;;;;;5001959;28;20049;-69
2022/06/02 08:42:35;;;;;;;6.22;2.08;;;13.20;99.90;;;;;;4994435;28;20133;-71
2022/06/02 08:45:32;;;;;;;2.20;1.40;;;13.30;99.90;;;;;;5013944;28;20132;-72
2022/06/02 08:48:03;;;;;;;4.30;1.13;;;13.30;99.90;;;;;;5012747;28;20046;-70
2022/06/02 08:50:56;;;;;;;2.85;1.52;;;13.30;99.90;;;;;;5012625;28;20494;-70
2022/06/02 08:53:59;;;;;;;4.35;1.50;;;13.30;99.90;;;;;;5030583;28;20410;-71
2022/06/02 08:57:03;;;;;;;2.78;1.42;;;13.40;99.90;;;;;;5031053;28;20452;-70
2022/06/02 09:00:06;;;;;;;3.60;1.50;;;13.40;99.90;;;;;;5033429;28;20053;-70
2022/06/02 09:02:44;;;;;;;5.65;1.83;;;13.40;99.90;;;;;;5032868;28;20487;-71
2022/06/02 09:05:47;;;;;;;2.55;1.63;;;13.40;99.90;;;;;;5030321;28;20045;-69
2022/06/02 09:08:28;;;;;;;3.10;1.48;;;13.40;99.90;;;;;;4993731;28;20590;-72
2022/06/02 09:11:05;;;;;;;2.72;1.20;;;13.40;99.90;;;;;;4993581;28;20042;-70
2022/06/02 09:13:53;;;;;;;4.18;1.45;;;13.40;99.90;;;;;;5010451;28;20050;-69
2022/06/02 09:16:36;;;;;;;2.88;1.30;;;13.50;99.90;;;;;;5025512;28;20081;-70
2022/06/02 09:19:14;;;;;;;3.17;1.27;;;13.50;99.90;;;;;;5013397;28;20057;-70
2022/06/02 09:21:39;;;;;;;3.03;1.67;;;13.60;99.90;;;;;;4995504;28;20104;-72
2022/06/02 09:24:23;;;;;;;5.00;1.48;;;13.60;99.90;;;;;;5019715;28;20053;-69
2022/06/02 09:27:23;;;;;;;6.50;1.75;;;13.70;99.90;;;;;;5032281;28;20069;-71
2022/06/02 09:30:11;;;;;;;4.40;1.92;;;13.90;99.90;;;;;;5030425;28;20077;-70
2022/06/02 09:33:33;;;;;;;5.45;1.77;;;14.00;99.90;;;;;;5032917;28;20095;-69
2022/06/02 09:36:13;;;;;;;5.97;1.40;;;14.10;99.90;;;;;;5011084;28;20087;-71
2022/06/02 12:10:12;;;;;;;1.75;1.00;;;15.70;99.90;;;;;;5014288;28;20101;-72
2022/06/02 12:12:59;;;;;;;1.95;1.08;;;15.80;99.90;;;;;;5014657;28;20046;-70
2022/06/02 12:15:55;;;;;;;1.73;0.98;;;15.80;99.90;;;;;;5006621;28;20115;-71
2022/06/02 12:18:46;;;;;;;4.00;1.83;;;15.80;99.90;;;;;;5014126;28;20049;-70
2022/06/02 12:21:46;;;;;;;3.40;1.60;;;15.90;99.90;;;;;;4994705;28;20414;-71
2022/06/02 12:24:32;;;;;;;2.58;1.30;;;15.90;99.90;;;;;;4988832;28;20504;-70
2022/06/02 12:27:10;;;;;;;1.85;1.17;;;16.00;99.90;;;;;;5006026;28;20050;-71
2022/06/02 12:30:08;;;;;;;2.65;1.25;;;16.00;99.90;;;;;;5034124;28;20049;-70
2022/06/02 12:33:03;;;;;;;2.83;1.00;;;16.00;99.90;;;;;;5033905;28;20041;-70
2022/06/02 12:35:53;;;;;;;2.33;1.35;;;16.10;99.90;;;;;;5032457;28;20103;-72
2022/06/02 12:38:52;;;;;;;4.65;1.52;;;16.20;99.90;;;;;;5007938;28;20050;-71
2022/06/02 12:41:35;;;;;;;3.22;1.23;;;16.30;99.90;;;;;;5029637;28;20045;-69
2022/06/02 12:44:14;;;;;;;5.55;1.30;;;16.30;99.90;;;;;;5033842;28;20132;-70
2022/06/02 12:47:04;;;;;;;2.10;1.10;;;16.40;99.90;;;;;;5033636;28;20088;-72
2022/06/02 12:49:45;;;;;;;3.47;1.20;;;16.30;99.90;;;;;;5033655;28;20436;-70
2022/06/02 12:52:19;;;;;;;1.63;1.05;;;16.30;99.90;;;;;;5027109;28;20046;-70
2022/06/02 12:55:04;;;;;;;2.15;1.10;;;16.30;99.90;;;;;;5033514;28;20046;-71
2022/06/02 12:57:58;;;;;;;3.90;1.27;;;16.40;99.90;;;;;;5033457;28;20514;-70
2022/06/02 13:01:00;;;;;;;3.03;1.52;;;16.40;99.90;;;;;;5014147;28;20053;-70
2022/06/02 13:04:04;;;;;;;4.45;1.48;;;16.30;99.90;;;;;;5032896;28;20100;-70
2022/06/02 13:06:30;;;;;;;3.00;1.15;;;16.30;99.90;;;;;;5033253;28;20054;-70
2022/06/02 13:09:20;;;;;;;2.40;1.50;;;16.40;99.90;;;;;;5028277;28;20523;-71
2022/06/02 13:12:05;;;;;;;2.00;1.35;;;16.40;99.90;;;;;;5027189;28;20121;-70
2022/06/02 13:14:52;;;;;;;2.50;1.10;;;16.40;99.90;;;;;;5021100;28;20045;-70
2022/06/02 13:17:42;;;;;;;2.33;1.20;;;16.40;99.90;;;;;;5032204;28;20049;-72
2022/06/02 13:20:20;;;;;;;5.10;1.10;;;16.40;99.90;;;;;;5029845;28;20077;-70
2022/06/02 13:23:01;;;;;;;5.13;1.67;;;16.50;99.90;;;;;;5023828;28;20115;-70
2022/06/02 13:26:04;;;;;;;4.53;1.30;;;16.50;99.90;;;;;;5013185;28;20054;-72
2022/06/02 13:29:03;;;;;;;3.60;1.27;;;16.60;99.90;;;;;;5013242;28;20513;-71
2022/06/02 13:32:07;;;;;;;2.95;1.00;;;16.60;99.90;;;;;;5013138;28;20042;-72
2022/06/02 13:34:33;;;;;;;2.05;1.48;;;16.60;99.90;;;;;;5026099;28;20064;-70
2022/06/02 13:37:04;;;;;;;5.93;1.20;;;16.70;99.90;;;;;;5033028;28;20049;-70
2022/06/02 13:39:42;;;;;;;1.90;1.17;;;16.80;99.90;;;;;;5033007;28;20494;-72
2022/06/02 13:42:29;;;;;;;2.53;1.30;;;16.90;99.90;;;;;;5023008;28;20102;-70
2022/06/02 13:45:15;;;;;;;2.55;1.20;;;16.90;99.90;;;;;;5033151;28;20049;-70
2022/06/02 13:48:11;;;;;;;2.00;1.20;;;17.00;99.90;;;;;;5032951;28;20115;-71
2022/06/02 13:50:58;;;;;;;1.80;0.98;;;17.00;99.90;;;;;;5029897;28;20792;-70
2022/06/02 13:57:30;;;;;;;2.13;1.15;;;17.10;99.90;;;;;;4993705;28;20043;-70
2022/06/02 13:59:30;;;;;;;2.63;1.00;;;17.20;99.90;;;;;;5032920;28;20096;-70
2022/06/02 14:02:27;;;;;;;2.47;1.23;;;17.10;99.90;;;;;;5032894;28;20052;-71
2022/06/02 14:05:06;;;;;;;2.78;1.20;;;17.10;99.90;;;;;;5032798;28;20064;-69
2022/06/02 14:07:46;;;;;;;4.20;1.30;;;17.20;99.90;;;;;;5004585;28;20440;-70
2022/06/02 14:10:20;;;;;;;3.75;1.30;;;17.10;99.90;;;;;;5032815;28;20482;-72
2022/06/02 14:12:58;;;;;;;4.40;1.42;;;17.10;99.90;;;;;;5015829;28;20394;-70
2022/06/02 14:15:33;;;;;;;3.72;1.33;;;17.10;99.90;;;;;;5036509;28;20045;-70
2022/06/02 14:18:18;;;;;;;2.78;0.90;;;17.20;99.90;;;;;;5034491;28;20041;-72
2022/06/02 14:21:20;;;;;;;2.63;1.35;;;17.10;99.90;;;;;;5036579;28;20053;-71
2022/06/02 14:24:13;;;;;;;2.83;1.20;;;17.20;99.90;;;;;;5036308;28;20041;-70
2022/06/02 14:26:57;;;;;;;3.47;1.48;;;17.20;99.90;;;;;;5031763;28;20398;-70
2022/06/02 14:29:47;;;;;;;2.15;1.33;;;17.20;99.90;;;;;;5034293;28;20050;-71
2022/06/02 14:32:19;;;;;;;3.63;1.30;;;17.20;99.90;;;;;;5016437;28;20042;-70
2022/06/02 14:35:08;;;;;;;2.00;1.02;;;17.20;99.90;;;;;;5031240;28;20071;-71
2022/06/02 14:37:44;;;;;;;5.35;2.25;;;17.20;99.90;;;;;;5035463;28;20033;-71
2022/06/02 14:40:19;;;;;;;1.83;1.23;;;17.20;99.90;;;;;;5035585;28;20536;-70
2022/06/02 14:43:13;;;;;;;1.80;0.90;;;17.20;99.90;;;;;;5035998;28;20124;-70
2022/06/02 14:46:05;;;;;;;1.55;0.90;;;17.20;99.90;;;;;;5035710;28;20089;-71
2022/06/02 14:48:58;;;;;;;3.28;1.20;;;17.20;99.90;;;;;;5034448;28;20132;-70
2022/06/02 14:51:32;;;;;;;3.38;1.20;;;17.10;99.90;;;;;;5035790;28;20096;-71
2022/06/02 14:54:19;;;;;;;3.25;1.45;;;17.10;99.90;;;;;;5035974;28;20050;-70
2022/06/02 14:57:09;;;;;;;2.08;1.10;;;16.90;99.90;;;;;;5035719;28;20054;-71
2022/06/02 15:00:03;;;;;;;2.90;1.10;;;16.90;99.90;;;;;;5034748;28;20052;-70
2022/06/02 15:02:51;;;;;;;2.33;1.00;;;16.90;99.90;;;;;;5035692;28;20046;-71
2022/06/02 15:05:44;;;;;;;2.05;1.38;;;16.90;99.90;;;;;;5018211;28;20046;-71
2022/06/02 15:08:47;;;;;;;2.83;1.05;;;17.00;99.90;;;;;;5032401;28;20058;-70
2022/06/02 15:11:32;;;;;;;3.05;0.98;;;17.00;99.90;;;;;;5049063;28;20095;-72
2022/06/02 15:14:09;;;;;;;2.60;1.08;;;17.10;99.90;;;;;;5055234;28;20571;-71
2022/06/02 15:17:10;;;;;;;4.35;1.10;;;17.10;99.90;;;;;;5049063;28;20049;-70
2022/06/02 15:20:02;;;;;;;4.57;1.35;;;17.10;99.90;;;;;;5009840;28;20042;-77
2022/06/02 15:22:55;;;;;;;2.60;1.27;;;17.20;99.90;;;;;;5011948;28;20058;-71
2022/06/02 15:25:38;;;;;;;5.15;0.90;;;17.30;99.90;;;;;;4995891;28;20638;-72
2022/06/02 15:28:11;;;;;;;3.05;1.10;;;17.30;99.90;;;;;;5013187;28;20134;-71
2022/06/02 15:30:48;;;;;;;2.22;1.02;;;17.40;99.90;;;;;;5007736;28;20050;-73
2022/06/02 15:33:28;;;;;;;2.20;1.10;;;17.40;99.90;;;;;;4992995;28;20466;-72
2022/06/02 15:36:15;;;;;;;5.13;1.20;;;17.40;99.90;;;;;;4975925;28;20046;-71
2022/06/02 15:39:18;;;;;;;5.47;1.27;;;17.40;99.90;;;;;;4992445;28;20116;-73
2022/06/02 15:42:23;;;;;;;4.85;1.10;;;17.40;99.90;;;;;;4994138;28;20088;-74
2022/06/02 15:45:22;;;;;;;2.10;1.10;;;17.40;99.90;;;;;;5012965;28;20495;-72
2022/06/02 15:47:54;;;;;;;4.18;1.02;;;17.40;99.90;;;;;;4995601;28;20500;-72
2022/06/02 15:50:42;;;;;;;1.98;0.98;;;17.50;99.90;;;;;;4981939;28;20053;-72
2022/06/02 15:53:36;;;;;;;2.65;1.08;;;17.50;99.90;;;;;;5002219;28;20425;-72
2022/06/02 15:56:17;;;;;;;1.65;0.80;;;17.50;99.90;;;;;;5006682;28;20049;-71
2022/06/02 15:58:55;;;;;;;2.42;1.00;;;17.50;99.90;;;;;;5034259;28;20498;-72
2022/06/02 16:01:45;;;;;;;2.10;1.00;;;17.60;99.90;;;;;;5028835;28;20052;-75
2022/06/02 16:04:30;;;;;;;2.90;0.95;;;17.60;99.90;;;;;;5034500;28;20050;-74
2022/06/02 16:07:14;;;;;;;2.60;0.95;;;17.60;99.90;;;;;;5045107;28;20041;-71
2022/06/02 16:13:13;;;;;;;5.60;0.90;;;17.70;99.90;;;;;;5028167;28;20124;-71
2022/06/02 16:15:58;;;;;;;5.72;1.13;;;17.60;99.90;;;;;;5034041;28;20482;-71
2022/06/02 16:18:32;;;;;;;2.13;0.80;;;17.70;99.90;;;;;;5033410;28;20486;-72
2022/06/02 16:21:11;;;;;;;3.17;1.00;;;17.70;99.90;;;;;;5049511;28;20413;-72
2022/06/02 16:23:58;;;;;;;1.30;0.80;;;17.60;99.90;;;;;;5053795;28;20127;-72
2022/06/02 16:26:32;;;;;;;2.70;0.80;;;17.60;99.90;;;;;;5014041;28;20045;-74
2022/06/02 16:29:28;;;;;;;1.65;0.95;;;17.60;99.90;;;;;;5015412;28;20041;-72
2022/06/02 16:32:09;;;;;;;4.35;1.50;;;17.60;99.90;;;;;;5030613;28;20038;-73
2022/06/02 16:35:20;;;;;;;2.75;0.88;;;17.60;99.90;;;;;;5044988;28;20125;-71
2022/06/02 16:37:52;;;;;;;3.72;1.00;;;17.70;99.90;;;;;;5033752;28;20052;-72
2022/06/02 16:40:27;;;;;;;1.10;0.60;;;17.60;99.90;;;;;;5033845;28;20049;-73
2022/06/02 16:43:25;;;;;;;2.58;0.80;;;17.70;99.90;;;;;;5046798;28;20096;-71
2022/06/02 16:46:05;;;;;;;3.05;0.68;;;17.70;99.90;;;;;;5046384;28;20390;-72
2022/06/02 16:48:56;;;;;;;2.75;0.70;;;17.70;99.90;;;;;;5033556;28;20049;-71
2022/06/02 16:52:05;;;;;;;1.50;0.60;;;17.70;99.90;;;;;;5033560;28;20095;-71
2022/06/02 16:54:50;;;;;;;1.77;0.63;;;17.60;99.90;;;;;;4972094;28;20137;-74
2022/06/02 16:57:52;;;;;;;2.03;0.70;;;17.50;99.90;;;;;;4972645;28;20162;-71
2022/06/02 17:00:50;;;;;;;2.25;0.80;;;17.40;99.90;;;;;;4933898;29;20423;-74
2022/06/02 17:03:44;;;;;;;1.63;0.63;;;17.30;99.90;;;;;;4948138;28;20047;-74
2022/06/02 17:06:15;;;;;;;1.83;0.73;;;17.20;99.90;;;;;;4952342;29;20083;-72
2022/06/02 17:09:02;;;;;;;1.13;0.70;;;17.20;99.90;;;;;;4954619;28;20290;-72
2022/06/02 17:11:42;;;;;;;1.27;0.60;;;17.10;99.90;;;;;;4936953;29;20561;-71